Baltic Princess — 3EPD3 — position and weather

sailwx.info

Track history (hours):
 
Tides and Currents Weather Stations Pressure Air Temp Water Temp Dewpoint Dewpoint Depression Visibility Wind Speed Wind Dir Waves Ship Positions

Baltic Princess

Last reported at 2017-Oct-05 23:36 UTC. Time now 2017-Oct-17 18:58 UTC.
Position N 40°47' E 018°17'.
Warning: this ship's position is 11 days out of date.

Length 120 m; draft 4.8 m.

Type: Cargo ship. MMSI: 374666000.

Date/timePositionNaut miles runAvg speedWind from/ knotsBaromVisibWave heightAir tempDewpointWater temp
2017-Oct-05 23:36N 40°47' E 018°17'210.6
2017-Oct-05 23:27N 40°48' E 018°15'510.6
2017-Oct-05 23:00N 40°52' E 018°11'24010.6
2017-Oct-05 00:29N 43°37' E 014°16'2411.2
2017-Oct-04 22:19N 43°53' E 013°51'2411.2
2017-Oct-04 20:10N 44°06' E 013°23'211.4
2017-Oct-04 20:00N 44°07' E 013°21'611.3
2017-Oct-04 19:30N 44°11' E 013°14'611.0
2017-Oct-04 18:59N 44°14' E 013°08'2510.8
2017-Oct-04 16:40N 44°28' E 012°39'210.6
2017-Oct-04 16:30N 44°29' E 012°37'610.2
2017-Oct-04 15:57N 44°30' E 012°29'10 0.4
2017-Oct-03 14:50N 44°28' E 012°15'0 0.0
2017-Oct-03 11:44N 44°28' E 012°15'0 0.0
2017-Oct-03 11:26N 44°28' E 012°15'0 0.0
2017-Oct-03 10:50N 44°28' E 012°15'10 0.7
2017-Oct-02 20:29N 44°31' E 012°29'0 0.0
2017-Oct-02 19:59N 44°31' E 012°29'0 0.0
2017-Oct-02 19:29N 44°31' E 012°29'0 0.0
2017-Oct-02 17:59N 44°31' E 012°29'0 0.0
2017-Oct-02 16:53N 44°31' E 012°29'0 0.0
2017-Oct-01 21:54N 44°31' E 012°29'  
Track history (hours):
 
Tides and Currents Weather Stations Pressure Air Temp Water Temp Dewpoint Dewpoint Depression Visibility Wind Speed Wind Dir Waves Ship Positions

Baltic Princess

Last reported at 2017-Oct-05 23:36 UTC. Time now 2017-Oct-17 18:58 UTC.
Position N 40°47' E 018°17'.
Warning: this ship's position is 11 days out of date.

Length 120 m; draft 4.8 m.

Type: Cargo ship. MMSI: 374666000.

Date/timePositionNaut miles runAvg speedWind from/ knotsBaromVisibWave heightAir tempDewpointWater temp
2017-Oct-05 23:36N 40°47' E 018°17'210.6
2017-Oct-05 23:27N 40°48' E 018°15'510.6
2017-Oct-05 23:00N 40°52' E 018°11'24010.6
2017-Oct-05 00:29N 43°37' E 014°16'2411.2
2017-Oct-04 22:19N 43°53' E 013°51'2411.2
2017-Oct-04 20:10N 44°06' E 013°23'211.4
2017-Oct-04 20:00N 44°07' E 013°21'611.3
2017-Oct-04 19:30N 44°11' E 013°14'611.0
2017-Oct-04 18:59N 44°14' E 013°08'2510.8
2017-Oct-04 16:40N 44°28' E 012°39'210.6
2017-Oct-04 16:30N 44°29' E 012°37'610.2
2017-Oct-04 15:57N 44°30' E 012°29'10 0.4
2017-Oct-03 14:50N 44°28' E 012°15'0 0.0
2017-Oct-03 11:44N 44°28' E 012°15'0 0.0
2017-Oct-03 11:26N 44°28' E 012°15'0 0.0
2017-Oct-03 10:50N 44°28' E 012°15'10 0.7
2017-Oct-02 20:29N 44°31' E 012°29'0 0.0
2017-Oct-02 19:59N 44°31' E 012°29'0 0.0
2017-Oct-02 19:29N 44°31' E 012°29'0 0.0
2017-Oct-02 17:59N 44°31' E 012°29'0 0.0
2017-Oct-02 16:53N 44°31' E 012°29'0 0.0
2017-Oct-01 21:54N 44°31' E 012°29'  

Dump ship's entire track history